« Back
NWS Peachtree City, Ga » Text Product » AHN Terminal Aerodrome Forecast


Printer-friendly Version
Current Version              Previous Versions:   1  2  3  4  5  6  7  8  9  

Terminal Aerodrome Forecast

207
FTAK31 PAJN 291800 AAA
TAFAHN
TAF AMD
PAHN 291823Z 2918/3018 12006KT P6SM OVC050
     FM292000 12008KT 6SM -SHRA BR BKN020 OVC040
     FM292300 11009KT P6SM VCSH SCT025 OVC050
     FM300300 10006KT P6SM SCT025 BKN050
     FM301400 VRB03KT P6SM -SHRA SCT005 BKN015 OVC030
      AMD LTD TO CLD VIS AND WIND=

USA.gov is the U.S. government's official web portal to all federal, state and local government web resources and services.